sensor_id;sensor_type;location;lat;lon;timestamp;P1;durP1;ratioP1;P2;durP2;ratioP2
18897;SDS011;9581;49.484;8.556;2023-05-18T00:01:53;0.10;;;0.10;;
18897;SDS011;9581;49.484;8.556;2023-05-18T00:04:21;0.10;;;0.10;;
18897;SDS011;9581;49.484;8.556;2023-05-18T00:06:50;0.10;;;0.10;;
18897;SDS011;9581;49.484;8.556;2023-05-18T00:09:21;0.10;;;0.10;;
18897;SDS011;9581;49.484;8.556;2023-05-18T00:11:48;0.10;;;0.10;;
18897;SDS011;9581;49.484;8.556;2023-05-18T00:14:15;0.10;;;0.10;;
18897;SDS011;9581;49.484;8.556;2023-05-18T00:16:42;0.40;;;0.40;;
18897;SDS011;9581;49.484;8.556;2023-05-18T00:19:09;0.10;;;0.10;;
18897;SDS011;9581;49.484;8.556;2023-05-18T00:21:40;0.10;;;0.10;;
18897;SDS011;9581;49.484;8.556;2023-05-18T00:24:07;0.10;;;0.10;;
18897;SDS011;9581;49.484;8.556;2023-05-18T00:26:36;0.10;;;0.10;;
18897;SDS011;9581;49.484;8.556;2023-05-18T00:29:03;0.10;;;0.10;;
18897;SDS011;9581;49.484;8.556;2023-05-18T00:31:30;0.10;;;0.10;;
18897;SDS011;9581;49.484;8.556;2023-05-18T00:34:00;0.10;;;0.10;;
18897;SDS011;9581;49.484;8.556;2023-05-18T00:36:27;0.10;;;0.10;;
18897;SDS011;9581;49.484;8.556;2023-05-18T00:38:56;0.10;;;0.10;;
18897;SDS011;9581;49.484;8.556;2023-05-18T00:41:23;0.10;;;0.10;;
18897;SDS011;9581;49.484;8.556;2023-05-18T00:43:51;0.10;;;0.10;;
18897;SDS011;9581;49.484;8.556;2023-05-18T00:46:18;0.10;;;0.10;;
18897;SDS011;9581;49.484;8.556;2023-05-18T00:48:44;0.10;;;0.10;;
18897;SDS011;9581;49.484;8.556;2023-05-18T00:51:12;0.10;;;0.10;;
18897;SDS011;9581;49.484;8.556;2023-05-18T00:53:39;0.10;;;0.10;;
18897;SDS011;9581;49.484;8.556;2023-05-18T00:56:08;0.10;;;0.10;;
18897;SDS011;9581;49.484;8.556;2023-05-18T00:58:35;0.10;;;0.10;;
18897;SDS011;9581;49.484;8.556;2023-05-18T01:01:03;0.10;;;0.10;;
18897;SDS011;9581;49.484;8.556;2023-05-18T01:03:31;0.10;;;0.10;;
18897;SDS011;9581;49.484;8.556;2023-05-18T01:05:58;0.10;;;0.10;;
18897;SDS011;9581;49.484;8.556;2023-05-18T01:08:25;0.10;;;0.10;;
18897;SDS011;9581;49.484;8.556;2023-05-18T01:10:53;0.10;;;0.10;;
18897;SDS011;9581;49.484;8.556;2023-05-18T01:13:30;0.10;;;0.10;;
18897;SDS011;9581;49.484;8.556;2023-05-18T01:16:04;0.10;;;0.10;;
18897;SDS011;9581;49.484;8.556;2023-05-18T01:18:36;0.10;;;0.10;;
18897;SDS011;9581;49.484;8.556;2023-05-18T01:21:15;0.10;;;0.10;;
18897;SDS011;9581;49.484;8.556;2023-05-18T01:23:58;0.10;;;0.10;;
18897;SDS011;9581;49.484;8.556;2023-05-18T01:26:31;0.10;;;0.10;;
18897;SDS011;9581;49.484;8.556;2023-05-18T01:29:02;0.10;;;0.10;;
18897;SDS011;9581;49.484;8.556;2023-05-18T01:31:31;0.10;;;0.10;;
18897;SDS011;9581;49.484;8.556;2023-05-18T01:33:58;0.10;;;0.10;;
18897;SDS011;9581;49.484;8.556;2023-05-18T01:36:25;0.10;;;0.10;;
18897;SDS011;9581;49.484;8.556;2023-05-18T01:38:52;0.10;;;0.10;;
18897;SDS011;9581;49.484;8.556;2023-05-18T01:41:20;0.10;;;0.10;;
18897;SDS011;9581;49.484;8.556;2023-05-18T01:43:54;0.10;;;0.10;;
18897;SDS011;9581;49.484;8.556;2023-05-18T01:46:30;0.10;;;0.10;;
18897;SDS011;9581;49.484;8.556;2023-05-18T01:49:01;0.10;;;0.10;;
18897;SDS011;9581;49.484;8.556;2023-05-18T01:51:35;0.10;;;0.10;;
18897;SDS011;9581;49.484;8.556;2023-05-18T01:54:09;0.10;;;0.10;;
18897;SDS011;9581;49.484;8.556;2023-05-18T01:56:37;0.10;;;0.10;;
18897;SDS011;9581;49.484;8.556;2023-05-18T01:59:06;0.10;;;0.10;;
18897;SDS011;9581;49.484;8.556;2023-05-18T02:01:33;0.20;;;0.20;;
18897;SDS011;9581;49.484;8.556;2023-05-18T02:04:00;0.10;;;0.10;;
18897;SDS011;9581;49.484;8.556;2023-05-18T02:06:27;0.10;;;0.10;;
18897;SDS011;9581;49.484;8.556;2023-05-18T02:08:54;0.10;;;0.10;;
18897;SDS011;9581;49.484;8.556;2023-05-18T02:11:20;0.10;;;0.10;;
18897;SDS011;9581;49.484;8.556;2023-05-18T02:13:47;0.10;;;0.10;;
18897;SDS011;9581;49.484;8.556;2023-05-18T02:16:15;0.20;;;0.20;;
18897;SDS011;9581;49.484;8.556;2023-05-18T02:18:43;0.10;;;0.10;;
18897;SDS011;9581;49.484;8.556;2023-05-18T02:21:10;0.13;;;0.13;;
18897;SDS011;9581;49.484;8.556;2023-05-18T02:23:37;0.10;;;0.10;;
18897;SDS011;9581;49.484;8.556;2023-05-18T02:26:04;0.10;;;0.10;;
18897;SDS011;9581;49.484;8.556;2023-05-18T02:28:31;0.10;;;0.10;;
18897;SDS011;9581;49.484;8.556;2023-05-18T02:31:07;0.10;;;0.10;;
18897;SDS011;9581;49.484;8.556;2023-05-18T02:33:37;0.10;;;0.10;;
18897;SDS011;9581;49.484;8.556;2023-05-18T02:36:06;0.10;;;0.10;;
18897;SDS011;9581;49.484;8.556;2023-05-18T02:38:34;0.10;;;0.10;;
18897;SDS011;9581;49.484;8.556;2023-05-18T02:41:02;0.10;;;0.10;;
18897;SDS011;9581;49.484;8.556;2023-05-18T02:43:29;0.20;;;0.20;;
18897;SDS011;9581;49.484;8.556;2023-05-18T02:45:56;0.10;;;0.10;;
18897;SDS011;9581;49.484;8.556;2023-05-18T02:48:23;0.20;;;0.20;;
18897;SDS011;9581;49.484;8.556;2023-05-18T02:50:51;0.10;;;0.10;;
18897;SDS011;9581;49.484;8.556;2023-05-18T02:53:18;0.10;;;0.10;;
18897;SDS011;9581;49.484;8.556;2023-05-18T02:55:45;0.13;;;0.13;;
18897;SDS011;9581;49.484;8.556;2023-05-18T02:58:12;0.10;;;0.10;;
18897;SDS011;9581;49.484;8.556;2023-05-18T03:00:39;0.20;;;0.20;;
18897;SDS011;9581;49.484;8.556;2023-05-18T03:03:06;0.10;;;0.10;;
18897;SDS011;9581;49.484;8.556;2023-05-18T03:05:34;0.10;;;0.10;;
18897;SDS011;9581;49.484;8.556;2023-05-18T03:08:03;0.13;;;0.13;;
18897;SDS011;9581;49.484;8.556;2023-05-18T03:10:30;0.20;;;0.20;;
18897;SDS011;9581;49.484;8.556;2023-05-18T03:12:57;0.20;;;0.20;;
18897;SDS011;9581;49.484;8.556;2023-05-18T03:15:23;0.20;;;0.20;;
18897;SDS011;9581;49.484;8.556;2023-05-18T03:17:51;0.20;;;0.20;;
18897;SDS011;9581;49.484;8.556;2023-05-18T03:20:17;0.10;;;0.10;;
18897;SDS011;9581;49.484;8.556;2023-05-18T03:22:45;0.20;;;0.20;;
18897;SDS011;9581;49.484;8.556;2023-05-18T03:25:13;0.10;;;0.10;;
18897;SDS011;9581;49.484;8.556;2023-05-18T03:27:41;0.20;;;0.20;;
18897;SDS011;9581;49.484;8.556;2023-05-18T03:30:08;0.10;;;0.10;;
18897;SDS011;9581;49.484;8.556;2023-05-18T03:32:35;0.10;;;0.10;;
18897;SDS011;9581;49.484;8.556;2023-05-18T03:35:02;0.10;;;0.10;;
18897;SDS011;9581;49.484;8.556;2023-05-18T03:37:29;0.20;;;0.20;;
18897;SDS011;9581;49.484;8.556;2023-05-18T03:39:57;0.10;;;0.10;;
18897;SDS011;9581;49.484;8.556;2023-05-18T03:42:26;0.10;;;0.10;;
18897;SDS011;9581;49.484;8.556;2023-05-18T03:44:53;0.10;;;0.10;;
18897;SDS011;9581;49.484;8.556;2023-05-18T03:47:20;0.20;;;0.20;;
18897;SDS011;9581;49.484;8.556;2023-05-18T03:49:47;0.10;;;0.10;;
18897;SDS011;9581;49.484;8.556;2023-05-18T03:52:13;0.20;;;0.20;;
18897;SDS011;9581;49.484;8.556;2023-05-18T03:54:46;0.20;;;0.20;;
18897;SDS011;9581;49.484;8.556;2023-05-18T03:57:14;0.20;;;0.20;;
18897;SDS011;9581;49.484;8.556;2023-05-18T03:59:42;0.20;;;0.20;;
18897;SDS011;9581;49.484;8.556;2023-05-18T04:02:09;0.20;;;0.20;;
18897;SDS011;9581;49.484;8.556;2023-05-18T04:04:36;0.20;;;0.20;;
18897;SDS011;9581;49.484;8.556;2023-05-18T04:07:06;0.20;;;0.20;;
18897;SDS011;9581;49.484;8.556;2023-05-18T04:09:32;0.20;;;0.20;;
18897;SDS011;9581;49.484;8.556;2023-05-18T04:12:00;0.20;;;0.20;;
18897;SDS011;9581;49.484;8.556;2023-05-18T04:14:27;0.20;;;0.20;;
18897;SDS011;9581;49.484;8.556;2023-05-18T04:16:58;0.10;;;0.10;;
18897;SDS011;9581;49.484;8.556;2023-05-18T04:19:30;0.20;;;0.20;;
18897;SDS011;9581;49.484;8.556;2023-05-18T04:21:56;0.20;;;0.20;;
18897;SDS011;9581;49.484;8.556;2023-05-18T04:24:23;0.20;;;0.20;;
18897;SDS011;9581;49.484;8.556;2023-05-18T04:26:51;0.20;;;0.20;;
18897;SDS011;9581;49.484;8.556;2023-05-18T04:29:17;0.20;;;0.20;;
18897;SDS011;9581;49.484;8.556;2023-05-18T04:31:45;0.10;;;0.10;;
18897;SDS011;9581;49.484;8.556;2023-05-18T04:34:14;0.10;;;0.10;;
18897;SDS011;9581;49.484;8.556;2023-05-18T04:36:41;0.20;;;0.20;;
18897;SDS011;9581;49.484;8.556;2023-05-18T04:39:08;0.20;;;0.20;;
18897;SDS011;9581;49.484;8.556;2023-05-18T04:41:36;0.20;;;0.20;;
18897;SDS011;9581;49.484;8.556;2023-05-18T04:44:06;0.20;;;0.20;;
18897;SDS011;9581;49.484;8.556;2023-05-18T04:46:33;0.10;;;0.10;;
18897;SDS011;9581;49.484;8.556;2023-05-18T04:49:03;0.20;;;0.20;;
18897;SDS011;9581;49.484;8.556;2023-05-18T04:51:31;0.20;;;0.20;;
18897;SDS011;9581;49.484;8.556;2023-05-18T04:53:59;0.20;;;0.20;;
18897;SDS011;9581;49.484;8.556;2023-05-18T04:56:27;0.10;;;0.10;;
18897;SDS011;9581;49.484;8.556;2023-05-18T04:58:54;0.20;;;0.20;;
18897;SDS011;9581;49.484;8.556;2023-05-18T05:01:23;0.20;;;0.20;;
18897;SDS011;9581;49.484;8.556;2023-05-18T05:03:50;0.20;;;0.20;;
18897;SDS011;9581;49.484;8.556;2023-05-18T05:06:17;0.20;;;0.20;;
18897;SDS011;9581;49.484;8.556;2023-05-18T05:08:45;0.20;;;0.20;;
18897;SDS011;9581;49.484;8.556;2023-05-18T05:11:12;0.20;;;0.20;;
18897;SDS011;9581;49.484;8.556;2023-05-18T05:13:38;0.20;;;0.20;;
18897;SDS011;9581;49.484;8.556;2023-05-18T05:16:05;0.20;;;0.20;;
18897;SDS011;9581;49.484;8.556;2023-05-18T05:18:32;0.20;;;0.20;;
18897;SDS011;9581;49.484;8.556;2023-05-18T05:20:59;0.10;;;0.10;;
18897;SDS011;9581;49.484;8.556;2023-05-18T05:23:25;0.20;;;0.20;;
18897;SDS011;9581;49.484;8.556;2023-05-18T05:25:54;0.10;;;0.10;;
18897;SDS011;9581;49.484;8.556;2023-05-18T05:28:20;0.20;;;0.20;;
18897;SDS011;9581;49.484;8.556;2023-05-18T05:30:47;0.20;;;0.20;;
18897;SDS011;9581;49.484;8.556;2023-05-18T05:33:14;0.20;;;0.20;;
18897;SDS011;9581;49.484;8.556;2023-05-18T05:35:40;0.10;;;0.10;;
18897;SDS011;9581;49.484;8.556;2023-05-18T05:38:07;0.20;;;0.20;;
18897;SDS011;9581;49.484;8.556;2023-05-18T05:40:34;0.20;;;0.20;;
18897;SDS011;9581;49.484;8.556;2023-05-18T05:43:03;0.20;;;0.20;;
18897;SDS011;9581;49.484;8.556;2023-05-18T05:45:30;0.17;;;0.17;;
18897;SDS011;9581;49.484;8.556;2023-05-18T05:47:56;0.20;;;0.20;;
18897;SDS011;9581;49.484;8.556;2023-05-18T05:50:23;0.20;;;0.20;;
18897;SDS011;9581;49.484;8.556;2023-05-18T05:52:50;0.10;;;0.10;;
18897;SDS011;9581;49.484;8.556;2023-05-18T05:55:16;0.10;;;0.10;;
18897;SDS011;9581;49.484;8.556;2023-05-18T05:57:44;0.13;;;0.13;;
18897;SDS011;9581;49.484;8.556;2023-05-18T06:00:12;0.10;;;0.10;;
18897;SDS011;9581;49.484;8.556;2023-05-18T06:02:39;0.13;;;0.13;;
18897;SDS011;9581;49.484;8.556;2023-05-18T06:05:06;0.10;;;0.10;;
18897;SDS011;9581;49.484;8.556;2023-05-18T06:07:34;0.10;;;0.10;;
18897;SDS011;9581;49.484;8.556;2023-05-18T06:10:01;0.10;;;0.10;;
18897;SDS011;9581;49.484;8.556;2023-05-18T06:12:28;0.10;;;0.10;;
18897;SDS011;9581;49.484;8.556;2023-05-18T06:14:55;0.20;;;0.20;;
18897;SDS011;9581;49.484;8.556;2023-05-18T06:17:23;0.10;;;0.10;;
18897;SDS011;9581;49.484;8.556;2023-05-18T06:19:51;0.10;;;0.10;;
18897;SDS011;9581;49.484;8.556;2023-05-18T06:22:18;0.13;;;0.13;;
18897;SDS011;9581;49.484;8.556;2023-05-18T06:24:44;0.20;;;0.20;;
18897;SDS011;9581;49.484;8.556;2023-05-18T06:27:11;0.10;;;0.10;;
18897;SDS011;9581;49.484;8.556;2023-05-18T06:29:38;0.10;;;0.10;;
18897;SDS011;9581;49.484;8.556;2023-05-18T06:32:05;0.10;;;0.10;;
18897;SDS011;9581;49.484;8.556;2023-05-18T06:34:34;0.10;;;0.10;;
18897;SDS011;9581;49.484;8.556;2023-05-18T06:37:01;0.10;;;0.10;;
18897;SDS011;9581;49.484;8.556;2023-05-18T06:39:28;0.10;;;0.10;;
18897;SDS011;9581;49.484;8.556;2023-05-18T06:41:55;0.10;;;0.10;;
18897;SDS011;9581;49.484;8.556;2023-05-18T06:44:22;0.10;;;0.10;;
18897;SDS011;9581;49.484;8.556;2023-05-18T06:46:49;0.10;;;0.10;;
18897;SDS011;9581;49.484;8.556;2023-05-18T06:49:15;0.10;;;0.10;;
18897;SDS011;9581;49.484;8.556;2023-05-18T06:51:44;0.10;;;0.10;;
18897;SDS011;9581;49.484;8.556;2023-05-18T06:54:11;0.10;;;0.10;;
18897;SDS011;9581;49.484;8.556;2023-05-18T06:56:39;0.10;;;0.10;;
18897;SDS011;9581;49.484;8.556;2023-05-18T06:59:05;0.10;;;0.10;;
18897;SDS011;9581;49.484;8.556;2023-05-18T07:01:32;0.10;;;0.10;;
18897;SDS011;9581;49.484;8.556;2023-05-18T07:03:59;0.10;;;0.10;;
18897;SDS011;9581;49.484;8.556;2023-05-18T07:06:26;0.10;;;0.10;;
18897;SDS011;9581;49.484;8.556;2023-05-18T07:08:54;0.10;;;0.10;;
18897;SDS011;9581;49.484;8.556;2023-05-18T07:11:21;0.10;;;0.10;;
18897;SDS011;9581;49.484;8.556;2023-05-18T07:13:48;0.10;;;0.10;;
18897;SDS011;9581;49.484;8.556;2023-05-18T07:16:15;0.10;;;0.10;;
18897;SDS011;9581;49.484;8.556;2023-05-18T07:18:42;0.10;;;0.10;;
18897;SDS011;9581;49.484;8.556;2023-05-18T07:21:08;0.10;;;0.10;;
18897;SDS011;9581;49.484;8.556;2023-05-18T07:23:35;0.10;;;0.10;;
18897;SDS011;9581;49.484;8.556;2023-05-18T07:26:03;0.10;;;0.10;;
18897;SDS011;9581;49.484;8.556;2023-05-18T07:28:32;0.10;;;0.10;;
18897;SDS011;9581;49.484;8.556;2023-05-18T07:30:58;0.10;;;0.10;;
18897;SDS011;9581;49.484;8.556;2023-05-18T07:33:25;0.10;;;0.10;;
18897;SDS011;9581;49.484;8.556;2023-05-18T07:35:52;0.10;;;0.10;;
18897;SDS011;9581;49.484;8.556;2023-05-18T07:38:19;0.10;;;0.10;;
18897;SDS011;9581;49.484;8.556;2023-05-18T07:40:46;0.10;;;0.10;;
18897;SDS011;9581;49.484;8.556;2023-05-18T07:43:15;0.10;;;0.10;;
18897;SDS011;9581;49.484;8.556;2023-05-18T07:45:42;0.10;;;0.10;;
18897;SDS011;9581;49.484;8.556;2023-05-18T07:48:09;0.10;;;0.10;;
18897;SDS011;9581;49.484;8.556;2023-05-18T07:50:35;0.10;;;0.10;;
18897;SDS011;9581;49.484;8.556;2023-05-18T07:53:03;0.10;;;0.10;;
18897;SDS011;9581;49.484;8.556;2023-05-18T07:55:29;0.10;;;0.10;;
18897;SDS011;9581;49.484;8.556;2023-05-18T07:57:56;0.10;;;0.10;;
18897;SDS011;9581;49.484;8.556;2023-05-18T08:00:26;0.10;;;0.10;;
18897;SDS011;9581;49.484;8.556;2023-05-18T08:02:53;0.10;;;0.10;;
18897;SDS011;9581;49.484;8.556;2023-05-18T08:05:20;0.10;;;0.10;;
18897;SDS011;9581;49.484;8.556;2023-05-18T08:07:47;0.10;;;0.10;;
18897;SDS011;9581;49.484;8.556;2023-05-18T08:10:14;0.10;;;0.10;;
18897;SDS011;9581;49.484;8.556;2023-05-18T08:12:40;0.00;;;0.00;;
18897;SDS011;9581;49.484;8.556;2023-05-18T08:15:08;0.10;;;0.10;;
18897;SDS011;9581;49.484;8.556;2023-05-18T08:17:36;0.10;;;0.10;;
18897;SDS011;9581;49.484;8.556;2023-05-18T08:20:04;0.10;;;0.10;;
18897;SDS011;9581;49.484;8.556;2023-05-18T08:22:32;0.00;;;0.00;;
18897;SDS011;9581;49.484;8.556;2023-05-18T08:24:59;0.10;;;0.10;;
18897;SDS011;9581;49.484;8.556;2023-05-18T08:27:26;0.10;;;0.10;;
18897;SDS011;9581;49.484;8.556;2023-05-18T08:29:53;0.10;;;0.10;;
18897;SDS011;9581;49.484;8.556;2023-05-18T08:32:20;0.10;;;0.10;;
18897;SDS011;9581;49.484;8.556;2023-05-18T08:34:48;0.00;;;0.00;;
18897;SDS011;9581;49.484;8.556;2023-05-18T08:37:15;0.00;;;0.00;;
18897;SDS011;9581;49.484;8.556;2023-05-18T08:39:42;0.00;;;0.00;;
18897;SDS011;9581;49.484;8.556;2023-05-18T08:42:10;0.00;;;0.00;;
18897;SDS011;9581;49.484;8.556;2023-05-18T08:44:45;0.00;;;0.00;;
18897;SDS011;9581;49.484;8.556;2023-05-18T08:47:16;0.00;;;0.00;;
18897;SDS011;9581;49.484;8.556;2023-05-18T08:49:51;0.00;;;0.00;;
18897;SDS011;9581;49.484;8.556;2023-05-18T08:52:21;0.00;;;0.00;;
18897;SDS011;9581;49.484;8.556;2023-05-18T08:54:52;0.00;;;0.00;;
18897;SDS011;9581;49.484;8.556;2023-05-18T08:57:21;0.00;;;0.00;;
18897;SDS011;9581;49.484;8.556;2023-05-18T08:59:48;0.00;;;0.00;;
18897;SDS011;9581;49.484;8.556;2023-05-18T09:02:18;0.00;;;0.00;;
18897;SDS011;9581;49.484;8.556;2023-05-18T09:04:44;0.00;;;0.00;;
18897;SDS011;9581;49.484;8.556;2023-05-18T09:07:14;0.00;;;0.00;;
18897;SDS011;9581;49.484;8.556;2023-05-18T09:09:42;0.00;;;0.00;;
18897;SDS011;9581;49.484;8.556;2023-05-18T09:12:11;0.00;;;0.00;;
18897;SDS011;9581;49.484;8.556;2023-05-18T09:14:39;0.00;;;0.00;;
18897;SDS011;9581;49.484;8.556;2023-05-18T09:17:07;0.00;;;0.00;;
18897;SDS011;9581;49.484;8.556;2023-05-18T09:19:34;0.00;;;0.00;;
18897;SDS011;9581;49.484;8.556;2023-05-18T09:22:02;0.00;;;0.00;;
18897;SDS011;9581;49.484;8.556;2023-05-18T09:24:31;0.00;;;0.00;;
18897;SDS011;9581;49.484;8.556;2023-05-18T09:26:58;0.00;;;0.00;;
18897;SDS011;9581;49.484;8.556;2023-05-18T09:29:25;0.00;;;0.00;;
18897;SDS011;9581;49.484;8.556;2023-05-18T09:31:52;0.10;;;0.10;;
18897;SDS011;9581;49.484;8.556;2023-05-18T09:34:19;0.00;;;0.00;;
18897;SDS011;9581;49.484;8.556;2023-05-18T09:36:46;0.00;;;0.00;;
18897;SDS011;9581;49.484;8.556;2023-05-18T09:39:14;0.00;;;0.00;;
18897;SDS011;9581;49.484;8.556;2023-05-18T09:41:42;0.00;;;0.00;;
18897;SDS011;9581;49.484;8.556;2023-05-18T09:44:09;0.00;;;0.00;;
18897;SDS011;9581;49.484;8.556;2023-05-18T09:46:37;0.00;;;0.00;;
18897;SDS011;9581;49.484;8.556;2023-05-18T09:49:04;0.00;;;0.00;;
18897;SDS011;9581;49.484;8.556;2023-05-18T09:51:33;0.00;;;0.00;;
18897;SDS011;9581;49.484;8.556;2023-05-18T09:54:01;0.00;;;0.00;;
18897;SDS011;9581;49.484;8.556;2023-05-18T09:56:30;0.00;;;0.00;;
18897;SDS011;9581;49.484;8.556;2023-05-18T09:59:07;0.00;;;0.00;;
18897;SDS011;9581;49.484;8.556;2023-05-18T10:01:35;0.25;;;0.25;;
18897;SDS011;9581;49.484;8.556;2023-05-18T10:04:02;0.00;;;0.00;;
18897;SDS011;9581;49.484;8.556;2023-05-18T10:06:30;0.00;;;0.00;;
18897;SDS011;9581;49.484;8.556;2023-05-18T10:08:57;0.00;;;0.00;;
18897;SDS011;9581;49.484;8.556;2023-05-18T10:11:30;0.00;;;0.00;;
18897;SDS011;9581;49.484;8.556;2023-05-18T10:13:57;0.00;;;0.00;;
18897;SDS011;9581;49.484;8.556;2023-05-18T10:16:26;0.00;;;0.00;;
18897;SDS011;9581;49.484;8.556;2023-05-18T10:18:53;0.00;;;0.00;;
18897;SDS011;9581;49.484;8.556;2023-05-18T10:21:20;0.00;;;0.00;;
18897;SDS011;9581;49.484;8.556;2023-05-18T10:23:49;0.00;;;0.00;;
18897;SDS011;9581;49.484;8.556;2023-05-18T10:26:16;0.00;;;0.00;;
18897;SDS011;9581;49.484;8.556;2023-05-18T10:28:48;0.00;;;0.00;;
18897;SDS011;9581;49.484;8.556;2023-05-18T10:31:17;0.00;;;0.00;;
18897;SDS011;9581;49.484;8.556;2023-05-18T10:33:47;0.00;;;0.00;;
18897;SDS011;9581;49.484;8.556;2023-05-18T10:36:17;0.00;;;0.00;;
18897;SDS011;9581;49.484;8.556;2023-05-18T10:38:44;0.00;;;0.00;;
18897;SDS011;9581;49.484;8.556;2023-05-18T10:41:12;0.00;;;0.00;;
18897;SDS011;9581;49.484;8.556;2023-05-18T10:43:40;0.00;;;0.00;;
18897;SDS011;9581;49.484;8.556;2023-05-18T10:46:09;0.00;;;0.00;;
18897;SDS011;9581;49.484;8.556;2023-05-18T10:48:37;0.00;;;0.00;;
18897;SDS011;9581;49.484;8.556;2023-05-18T10:51:07;0.00;;;0.00;;
18897;SDS011;9581;49.484;8.556;2023-05-18T10:53:34;0.00;;;0.00;;
18897;SDS011;9581;49.484;8.556;2023-05-18T10:56:01;0.00;;;0.00;;
18897;SDS011;9581;49.484;8.556;2023-05-18T10:58:28;0.00;;;0.00;;
18897;SDS011;9581;49.484;8.556;2023-05-18T11:00:57;0.00;;;0.00;;
18897;SDS011;9581;49.484;8.556;2023-05-18T11:03:27;0.00;;;0.00;;
18897;SDS011;9581;49.484;8.556;2023-05-18T11:06:04;0.00;;;0.00;;
18897;SDS011;9581;49.484;8.556;2023-05-18T11:08:41;0.00;;;0.00;;
18897;SDS011;9581;49.484;8.556;2023-05-18T11:11:09;0.00;;;0.00;;
18897;SDS011;9581;49.484;8.556;2023-05-18T11:13:37;0.00;;;0.00;;
18897;SDS011;9581;49.484;8.556;2023-05-18T11:16:08;0.10;;;0.10;;
18897;SDS011;9581;49.484;8.556;2023-05-18T11:18:39;0.00;;;0.00;;
18897;SDS011;9581;49.484;8.556;2023-05-18T11:21:27;0.00;;;0.00;;
18897;SDS011;9581;49.484;8.556;2023-05-18T11:24:16;0.00;;;0.00;;
18897;SDS011;9581;49.484;8.556;2023-05-18T11:26:45;0.00;;;0.00;;
18897;SDS011;9581;49.484;8.556;2023-05-18T11:29:16;0.00;;;0.00;;
18897;SDS011;9581;49.484;8.556;2023-05-18T11:31:45;0.00;;;0.00;;
18897;SDS011;9581;49.484;8.556;2023-05-18T11:37:11;0.00;;;0.00;;
18897;SDS011;9581;49.484;8.556;2023-05-18T11:39:39;0.00;;;0.00;;
18897;SDS011;9581;49.484;8.556;2023-05-18T11:42:07;0.00;;;0.00;;
18897;SDS011;9581;49.484;8.556;2023-05-18T11:44:35;0.00;;;0.00;;
18897;SDS011;9581;49.484;8.556;2023-05-18T11:47:04;0.00;;;0.00;;
18897;SDS011;9581;49.484;8.556;2023-05-18T11:49:35;0.00;;;0.00;;
18897;SDS011;9581;49.484;8.556;2023-05-18T11:52:09;0.00;;;0.00;;
18897;SDS011;9581;49.484;8.556;2023-05-18T11:54:42;0.00;;;0.00;;
18897;SDS011;9581;49.484;8.556;2023-05-18T11:57:11;0.00;;;0.00;;
18897;SDS011;9581;49.484;8.556;2023-05-18T11:59:40;0.00;;;0.00;;
18897;SDS011;9581;49.484;8.556;2023-05-18T12:02:08;0.00;;;0.00;;
18897;SDS011;9581;49.484;8.556;2023-05-18T12:04:43;0.00;;;0.00;;
18897;SDS011;9581;49.484;8.556;2023-05-18T12:07:11;0.00;;;0.00;;
18897;SDS011;9581;49.484;8.556;2023-05-18T12:09:40;0.00;;;0.00;;
18897;SDS011;9581;49.484;8.556;2023-05-18T12:12:08;0.00;;;0.00;;
18897;SDS011;9581;49.484;8.556;2023-05-18T12:14:36;0.00;;;0.00;;
18897;SDS011;9581;49.484;8.556;2023-05-18T12:17:06;0.00;;;0.00;;
18897;SDS011;9581;49.484;8.556;2023-05-18T12:19:40;0.10;;;0.10;;
18897;SDS011;9581;49.484;8.556;2023-05-18T12:22:08;0.00;;;0.00;;
18897;SDS011;9581;49.484;8.556;2023-05-18T12:24:36;0.00;;;0.00;;
18897;SDS011;9581;49.484;8.556;2023-05-18T12:27:05;0.00;;;0.00;;
18897;SDS011;9581;49.484;8.556;2023-05-18T12:29:33;0.00;;;0.00;;
18897;SDS011;9581;49.484;8.556;2023-05-18T12:32:04;0.00;;;0.00;;
18897;SDS011;9581;49.484;8.556;2023-05-18T12:34:32;0.00;;;0.00;;
18897;SDS011;9581;49.484;8.556;2023-05-18T12:36:59;0.00;;;0.00;;
18897;SDS011;9581;49.484;8.556;2023-05-18T12:39:25;0.00;;;0.00;;
18897;SDS011;9581;49.484;8.556;2023-05-18T12:41:54;0.00;;;0.00;;
18897;SDS011;9581;49.484;8.556;2023-05-18T12:44:33;0.00;;;0.00;;
18897;SDS011;9581;49.484;8.556;2023-05-18T12:47:00;0.00;;;0.00;;
18897;SDS011;9581;49.484;8.556;2023-05-18T12:49:27;0.00;;;0.00;;
18897;SDS011;9581;49.484;8.556;2023-05-18T12:51:54;0.00;;;0.00;;
18897;SDS011;9581;49.484;8.556;2023-05-18T12:54:26;0.00;;;0.00;;
18897;SDS011;9581;49.484;8.556;2023-05-18T12:56:55;0.00;;;0.00;;
18897;SDS011;9581;49.484;8.556;2023-05-18T12:59:24;0.00;;;0.00;;
18897;SDS011;9581;49.484;8.556;2023-05-18T13:01:51;0.00;;;0.00;;
18897;SDS011;9581;49.484;8.556;2023-05-18T13:04:19;0.00;;;0.00;;
18897;SDS011;9581;49.484;8.556;2023-05-18T13:06:46;0.00;;;0.00;;
18897;SDS011;9581;49.484;8.556;2023-05-18T13:09:14;0.00;;;0.00;;
18897;SDS011;9581;49.484;8.556;2023-05-18T13:11:45;0.00;;;0.00;;
18897;SDS011;9581;49.484;8.556;2023-05-18T13:14:18;0.00;;;0.00;;
18897;SDS011;9581;49.484;8.556;2023-05-18T13:16:48;0.00;;;0.00;;
18897;SDS011;9581;49.484;8.556;2023-05-18T13:19:16;0.10;;;0.10;;
18897;SDS011;9581;49.484;8.556;2023-05-18T13:21:43;0.00;;;0.00;;
18897;SDS011;9581;49.484;8.556;2023-05-18T13:24:12;0.00;;;0.00;;
18897;SDS011;9581;49.484;8.556;2023-05-18T13:26:39;0.00;;;0.00;;
18897;SDS011;9581;49.484;8.556;2023-05-18T13:29:06;0.00;;;0.00;;
18897;SDS011;9581;49.484;8.556;2023-05-18T13:31:34;0.00;;;0.00;;
18897;SDS011;9581;49.484;8.556;2023-05-18T13:34:01;0.00;;;0.00;;
18897;SDS011;9581;49.484;8.556;2023-05-18T13:36:28;0.00;;;0.00;;
18897;SDS011;9581;49.484;8.556;2023-05-18T13:38:57;0.10;;;0.10;;
18897;SDS011;9581;49.484;8.556;2023-05-18T13:41:25;0.00;;;0.00;;
18897;SDS011;9581;49.484;8.556;2023-05-18T13:43:52;0.00;;;0.00;;
18897;SDS011;9581;49.484;8.556;2023-05-18T13:46:19;0.10;;;0.10;;
18897;SDS011;9581;49.484;8.556;2023-05-18T13:48:47;0.00;;;0.00;;
18897;SDS011;9581;49.484;8.556;2023-05-18T13:51:14;0.00;;;0.00;;
18897;SDS011;9581;49.484;8.556;2023-05-18T13:53:41;0.00;;;0.00;;
18897;SDS011;9581;49.484;8.556;2023-05-18T13:56:08;0.20;;;0.20;;
18897;SDS011;9581;49.484;8.556;2023-05-18T13:58:34;0.10;;;0.10;;
18897;SDS011;9581;49.484;8.556;2023-05-18T14:01:01;0.10;;;0.10;;
18897;SDS011;9581;49.484;8.556;2023-05-18T14:03:31;0.00;;;0.00;;
18897;SDS011;9581;49.484;8.556;2023-05-18T14:06:01;0.00;;;0.00;;
18897;SDS011;9581;49.484;8.556;2023-05-18T14:08:28;0.00;;;0.00;;
18897;SDS011;9581;49.484;8.556;2023-05-18T14:10:55;0.08;;;0.08;;
18897;SDS011;9581;49.484;8.556;2023-05-18T14:13:22;0.00;;;0.00;;
18897;SDS011;9581;49.484;8.556;2023-05-18T14:15:48;0.00;;;0.00;;
18897;SDS011;9581;49.484;8.556;2023-05-18T14:18:15;0.10;;;0.10;;
18897;SDS011;9581;49.484;8.556;2023-05-18T14:20:42;0.00;;;0.00;;
18897;SDS011;9581;49.484;8.556;2023-05-18T14:23:11;0.10;;;0.10;;
18897;SDS011;9581;49.484;8.556;2023-05-18T14:25:38;0.00;;;0.00;;
18897;SDS011;9581;49.484;8.556;2023-05-18T14:28:08;0.00;;;0.00;;
18897;SDS011;9581;49.484;8.556;2023-05-18T14:30:35;0.10;;;0.10;;
18897;SDS011;9581;49.484;8.556;2023-05-18T14:33:02;0.00;;;0.00;;
18897;SDS011;9581;49.484;8.556;2023-05-18T14:35:29;0.00;;;0.00;;
18897;SDS011;9581;49.484;8.556;2023-05-18T14:37:56;0.10;;;0.10;;
18897;SDS011;9581;49.484;8.556;2023-05-18T14:40:24;0.00;;;0.00;;
18897;SDS011;9581;49.484;8.556;2023-05-18T14:42:51;0.00;;;0.00;;
18897;SDS011;9581;49.484;8.556;2023-05-18T14:45:17;0.00;;;0.00;;
18897;SDS011;9581;49.484;8.556;2023-05-18T14:47:44;0.00;;;0.00;;
18897;SDS011;9581;49.484;8.556;2023-05-18T14:50:12;0.00;;;0.00;;
18897;SDS011;9581;49.484;8.556;2023-05-18T14:52:38;0.00;;;0.00;;
18897;SDS011;9581;49.484;8.556;2023-05-18T14:55:05;0.00;;;0.00;;
18897;SDS011;9581;49.484;8.556;2023-05-18T14:57:34;0.00;;;0.00;;
18897;SDS011;9581;49.484;8.556;2023-05-18T15:00:01;0.00;;;0.00;;
18897;SDS011;9581;49.484;8.556;2023-05-18T15:02:28;0.00;;;0.00;;
18897;SDS011;9581;49.484;8.556;2023-05-18T15:04:55;0.00;;;0.00;;
18897;SDS011;9581;49.484;8.556;2023-05-18T15:07:21;0.00;;;0.00;;
18897;SDS011;9581;49.484;8.556;2023-05-18T15:09:48;0.00;;;0.00;;